createdAt,value
2022-12-01T00:00:16.311Z,8.50
2022-12-01T00:01:16.286Z,8.39
2022-12-01T00:02:16.413Z,8.32
2022-12-01T00:03:16.393Z,8.52
2022-12-01T00:04:16.269Z,8.49
2022-12-01T00:05:16.279Z,8.53
2022-12-01T00:06:16.291Z,8.46
2022-12-01T00:07:16.254Z,8.46
2022-12-01T00:08:16.236Z,8.52
2022-12-01T00:09:19.761Z,8.52
2022-12-01T00:10:16.251Z,8.55
2022-12-01T00:11:16.213Z,8.49
2022-12-01T00:12:16.214Z,8.44
2022-12-01T00:13:16.184Z,8.57
2022-12-01T00:14:16.191Z,8.50
2022-12-01T00:15:16.167Z,8.38
2022-12-01T00:16:16.280Z,8.46
2022-12-01T00:17:16.157Z,8.46
2022-12-01T00:18:16.189Z,8.46
2022-12-01T00:19:16.161Z,8.42
2022-12-01T00:20:16.140Z,8.32
2022-12-01T00:21:16.128Z,8.44
2022-12-01T00:22:16.121Z,8.34
2022-12-01T00:23:16.099Z,8.42
2022-12-01T00:24:16.090Z,8.31
2022-12-01T00:25:16.088Z,8.38
2022-12-01T00:26:16.084Z,8.31
2022-12-01T00:27:16.061Z,8.31
2022-12-01T00:28:16.084Z,8.24
2022-12-01T00:29:16.043Z,8.26
2022-12-01T00:30:16.045Z,8.28
2022-12-01T00:31:16.084Z,8.31
2022-12-01T00:32:16.128Z,8.32
2022-12-01T00:33:16.037Z,8.26
2022-12-01T00:34:16.009Z,8.29
2022-12-01T00:35:16.004Z,8.26
2022-12-01T00:36:15.980Z,8.24
2022-12-01T00:37:15.979Z,8.21
2022-12-01T00:38:15.997Z,8.28
2022-12-01T00:39:15.984Z,8.26
2022-12-01T00:40:15.983Z,8.32
2022-12-01T00:41:15.963Z,8.24
2022-12-01T00:42:15.938Z,8.24
2022-12-01T00:43:15.970Z,8.21
2022-12-01T00:44:15.922Z,8.16
2022-12-01T00:45:15.925Z,8.29
2022-12-01T00:46:15.947Z,8.21
2022-12-01T00:47:15.905Z,8.21
2022-12-01T00:48:15.882Z,8.24
2022-12-01T00:49:15.865Z,8.21
2022-12-01T00:50:15.871Z,8.26
2022-12-01T00:51:15.854Z,8.26
2022-12-01T00:52:15.862Z,8.31
2022-12-01T00:53:15.867Z,8.21
2022-12-01T00:54:15.836Z,8.29
2022-12-01T00:55:15.816Z,8.35
2022-12-01T00:56:15.811Z,8.34
2022-12-01T00:57:15.821Z,8.37
2022-12-01T00:58:15.812Z,8.32
2022-12-01T00:59:15.786Z,8.34
2022-12-01T01:00:15.770Z,8.39
2022-12-01T01:01:15.810Z,8.39
2022-12-01T01:02:15.826Z,8.28
2022-12-01T01:03:15.756Z,8.24
2022-12-01T01:04:15.762Z,8.24
2022-12-01T01:05:15.783Z,8.31
2022-12-01T01:06:15.719Z,8.24
2022-12-01T01:07:15.724Z,8.31
2022-12-01T01:08:15.699Z,8.28
2022-12-01T01:09:15.688Z,8.31
2022-12-01T01:10:15.703Z,8.20
2022-12-01T01:11:15.678Z,8.23
2022-12-01T01:12:15.695Z,8.24
2022-12-01T01:13:15.674Z,8.26
2022-12-01T01:14:15.670Z,8.26
2022-12-01T01:15:15.649Z,8.23
2022-12-01T01:16:15.777Z,8.20
2022-12-01T01:17:15.648Z,8.17
2022-12-01T01:18:15.605Z,8.19
2022-12-01T01:19:15.625Z,8.28
2022-12-01T01:20:15.596Z,8.24
2022-12-01T01:21:15.615Z,8.31
2022-12-01T01:22:15.604Z,8.32
2022-12-01T01:23:15.599Z,8.26
2022-12-01T01:24:15.552Z,8.24
2022-12-01T01:25:15.560Z,8.28
2022-12-01T01:26:15.546Z,8.20
2022-12-01T01:27:15.541Z,8.28
2022-12-01T01:28:15.550Z,8.24
2022-12-01T01:29:15.538Z,8.32
2022-12-01T01:30:15.521Z,8.29
2022-12-01T01:31:15.574Z,8.31
2022-12-01T01:32:15.528Z,8.20
2022-12-01T01:33:15.488Z,8.20
2022-12-01T01:34:15.511Z,8.23
2022-12-01T01:35:15.513Z,8.23
2022-12-01T01:36:15.462Z,8.19
2022-12-01T01:37:15.487Z,8.20
2022-12-01T01:38:15.441Z,8.21
2022-12-01T01:39:15.441Z,8.16
2022-12-01T01:40:15.458Z,8.16
2022-12-01T01:41:15.414Z,8.16
2022-12-01T01:42:15.402Z,8.14
2022-12-01T01:43:15.405Z,8.16
2022-12-01T01:44:15.383Z,8.21
2022-12-01T01:45:15.411Z,8.14
2022-12-01T01:46:15.416Z,8.26
2022-12-01T01:47:15.353Z,8.16
2022-12-01T01:48:15.359Z,8.23
2022-12-01T01:49:15.358Z,8.24
2022-12-01T01:50:15.344Z,8.23
2022-12-01T01:51:15.318Z,8.21
2022-12-01T01:52:15.317Z,8.26
2022-12-01T01:53:15.322Z,8.21
2022-12-01T01:54:15.309Z,8.23
2022-12-01T01:55:15.311Z,8.28
2022-12-01T01:56:15.287Z,8.12
2022-12-01T01:57:15.268Z,8.14
2022-12-01T01:58:15.303Z,8.17
2022-12-01T01:59:15.273Z,8.17
2022-12-01T02:00:15.274Z,8.24
2022-12-01T02:01:15.257Z,8.21
2022-12-01T02:02:15.268Z,8.23
2022-12-01T02:03:15.209Z,8.29
2022-12-01T02:04:15.218Z,8.32
2022-12-01T02:05:15.200Z,8.28
2022-12-01T02:06:15.226Z,8.29
2022-12-01T02:07:15.184Z,8.24
2022-12-01T02:08:15.182Z,8.28
2022-12-01T02:09:15.182Z,8.29
2022-12-01T02:10:15.160Z,8.31
2022-12-01T02:11:15.164Z,8.26
2022-12-01T02:12:15.138Z,8.24
2022-12-01T02:13:15.133Z,8.21
2022-12-01T02:14:15.147Z,8.28
2022-12-01T02:15:15.144Z,8.24
2022-12-01T02:16:15.162Z,8.20
2022-12-01T02:17:15.115Z,8.14
2022-12-01T02:18:15.144Z,8.24
2022-12-01T02:19:15.084Z,8.14
2022-12-01T02:20:15.092Z,8.23
2022-12-01T02:21:15.090Z,8.19
2022-12-01T02:22:15.083Z,8.17
2022-12-01T02:23:15.073Z,8.20
2022-12-01T02:24:15.061Z,8.23
2022-12-01T02:25:15.019Z,8.24
2022-12-01T02:26:15.025Z,8.20
2022-12-01T02:27:15.005Z,8.23
2022-12-01T02:28:15.030Z,8.14
2022-12-01T02:29:15.004Z,8.19
2022-12-01T02:30:14.995Z,8.14
2022-12-01T02:31:15.313Z,7.99
2022-12-01T02:32:14.994Z,8.05
2022-12-01T02:33:14.969Z,8.16
2022-12-01T02:34:14.938Z,8.02
2022-12-01T02:35:14.965Z,8.05
2022-12-01T02:36:14.950Z,8.04
2022-12-01T02:37:14.946Z,8.13
2022-12-01T02:38:14.920Z,8.04
2022-12-01T02:39:14.901Z,8.09
2022-12-01T02:40:14.912Z,8.06
2022-12-01T02:41:14.887Z,8.05
2022-12-01T02:42:14.898Z,8.13
2022-12-01T02:43:14.860Z,8.02
2022-12-01T02:44:14.882Z,8.06
2022-12-01T02:45:14.847Z,8.09
2022-12-01T02:46:14.905Z,8.05
2022-12-01T02:47:14.834Z,8.17
2022-12-01T02:48:14.834Z,8.09
2022-12-01T02:49:14.831Z,8.20
2022-12-01T02:50:14.798Z,8.17
2022-12-01T02:51:14.817Z,8.12
2022-12-01T02:52:14.808Z,8.09
2022-12-01T02:53:14.800Z,8.04
2022-12-01T02:54:14.767Z,8.06
2022-12-01T02:55:14.766Z,8.12
2022-12-01T02:56:14.787Z,8.05
2022-12-01T02:57:14.755Z,8.09
2022-12-01T02:58:14.723Z,8.02
2022-12-01T02:59:14.712Z,8.05
2022-12-01T03:00:14.704Z,8.09
2022-12-01T03:01:14.735Z,8.04
2022-12-01T03:02:14.763Z,8.06
2022-12-01T03:03:14.710Z,8.12
2022-12-01T03:04:14.691Z,8.06
2022-12-01T03:05:14.681Z,8.04
2022-12-01T03:06:14.692Z,8.04
2022-12-01T03:07:14.663Z,8.09
2022-12-01T03:08:14.646Z,8.06
2022-12-01T03:09:14.672Z,7.99
2022-12-01T03:10:14.616Z,8.05
2022-12-01T03:11:14.622Z,7.99
2022-12-01T03:12:14.614Z,8.06
2022-12-01T03:13:14.593Z,8.05
2022-12-01T03:14:14.600Z,8.09
2022-12-01T03:15:14.589Z,8.06
2022-12-01T03:16:14.628Z,8.05
2022-12-01T03:17:14.548Z,8.04
2022-12-01T03:18:14.542Z,8.05
2022-12-01T03:19:14.530Z,7.99
2022-12-01T03:20:14.533Z,7.98
2022-12-01T03:21:14.520Z,8.01
2022-12-01T03:22:14.570Z,8.05
2022-12-01T03:23:14.519Z,8.10
2022-12-01T03:24:14.488Z,8.01
2022-12-01T03:25:14.489Z,8.02
2022-12-01T03:26:14.479Z,7.95
2022-12-01T03:27:14.484Z,8.06
2022-12-01T03:28:21.167Z,8.01
2022-12-01T03:29:14.451Z,7.83
2022-12-01T03:30:14.456Z,7.96
2022-12-01T03:31:14.487Z,7.94
2022-12-01T03:32:14.419Z,7.94
2022-12-01T03:33:14.438Z,7.95
2022-12-01T03:34:14.414Z,7.98
2022-12-01T03:35:14.419Z,7.94
2022-12-01T03:36:14.419Z,7.91
2022-12-01T03:37:14.368Z,7.98
2022-12-01T03:38:14.383Z,7.86
2022-12-01T03:39:14.372Z,7.91
2022-12-01T03:40:14.351Z,7.87
2022-12-01T03:41:14.334Z,7.91
2022-12-01T03:42:14.333Z,7.84
2022-12-01T03:43:14.352Z,7.81
2022-12-01T03:44:14.315Z,7.87
2022-12-01T03:45:14.296Z,7.92
2022-12-01T03:46:14.381Z,7.84
2022-12-01T03:47:14.302Z,7.88
2022-12-01T03:48:14.267Z,7.92
2022-12-01T03:49:14.261Z,7.92
2022-12-01T03:50:14.335Z,7.84
2022-12-01T03:51:14.288Z,7.84
2022-12-01T03:52:14.235Z,7.86
2022-12-01T03:53:14.265Z,7.94
2022-12-01T03:54:14.224Z,7.84
2022-12-01T03:55:14.205Z,7.83
2022-12-01T03:56:14.225Z,7.81
2022-12-01T03:57:14.212Z,7.88
2022-12-01T03:58:14.175Z,7.96
2022-12-01T03:59:14.174Z,8.02
2022-12-01T04:00:14.193Z,7.88
2022-12-01T04:01:14.155Z,7.92
2022-12-01T04:02:14.214Z,7.91
2022-12-01T04:03:14.226Z,7.91
2022-12-01T04:04:14.124Z,7.88
2022-12-01T04:05:14.120Z,7.83
2022-12-01T04:06:14.105Z,7.86
2022-12-01T04:07:14.112Z,7.87
2022-12-01T04:08:14.118Z,7.87
2022-12-01T04:09:14.105Z,7.94
2022-12-01T04:10:14.079Z,7.83
2022-12-01T04:11:14.054Z,7.86
2022-12-01T04:12:14.072Z,7.88
2022-12-01T04:13:14.040Z,7.88
2022-12-01T04:14:14.063Z,7.91
2022-12-01T04:15:14.025Z,7.83
2022-12-01T04:16:14.076Z,7.91
2022-12-01T04:17:14.002Z,7.88
2022-12-01T04:18:13.995Z,7.87
2022-12-01T04:19:13.982Z,7.83
2022-12-01T04:20:14.006Z,7.83
2022-12-01T04:21:13.990Z,7.99
2022-12-01T04:22:13.968Z,7.84
2022-12-01T04:23:13.947Z,7.84
2022-12-01T04:24:13.946Z,7.91
2022-12-01T04:25:13.946Z,7.94
2022-12-01T04:26:15.868Z,7.94
2022-12-01T04:27:13.923Z,7.98
2022-12-01T04:28:13.901Z,7.88
2022-12-01T04:29:13.895Z,7.91
2022-12-01T04:30:13.894Z,7.94
2022-12-01T04:31:13.925Z,7.92
2022-12-01T04:32:13.894Z,7.91
2022-12-01T04:33:13.852Z,7.99
2022-12-01T04:34:13.892Z,7.88
2022-12-01T04:35:13.843Z,7.94
2022-12-01T04:36:13.824Z,7.87
2022-12-01T04:37:13.829Z,7.94
2022-12-01T04:38:13.832Z,7.92
2022-12-01T04:39:13.825Z,7.86
2022-12-01T04:40:13.791Z,7.92
2022-12-01T04:41:13.797Z,7.84
2022-12-01T04:42:13.780Z,7.92
2022-12-01T04:43:13.790Z,7.94
2022-12-01T04:44:13.759Z,8.04
2022-12-01T04:45:13.749Z,7.92
2022-12-01T04:46:13.795Z,7.99
2022-12-01T04:47:13.725Z,7.95
2022-12-01T04:48:13.712Z,7.96
2022-12-01T04:49:13.718Z,7.98
2022-12-01T04:50:13.719Z,7.92
2022-12-01T04:51:13.690Z,7.92
2022-12-01T04:52:13.714Z,7.99
2022-12-01T04:53:13.699Z,7.96
2022-12-01T04:54:13.674Z,7.92
2022-12-01T04:55:13.662Z,7.91
2022-12-01T04:56:13.643Z,8.01
2022-12-01T04:57:13.638Z,7.91
2022-12-01T04:58:13.631Z,8.06
2022-12-01T04:59:13.623Z,8.02
2022-12-01T05:00:13.624Z,7.94
2022-12-01T05:01:13.641Z,7.95
2022-12-01T05:02:13.736Z,7.86
2022-12-01T05:03:15.188Z,8.01
2022-12-01T05:04:13.590Z,7.94
2022-12-01T05:05:13.593Z,7.96
2022-12-01T05:06:13.550Z,7.95
2022-12-01T05:07:13.568Z,7.98
2022-12-01T05:08:13.553Z,7.96
2022-12-01T05:09:17.155Z,7.98
2022-12-01T05:10:13.532Z,7.95
2022-12-01T05:11:13.506Z,7.95
2022-12-01T05:12:13.542Z,7.86
2022-12-01T05:13:13.521Z,7.84
2022-12-01T05:14:13.480Z,7.95
2022-12-01T05:15:13.500Z,7.88
2022-12-01T05:16:13.527Z,7.91
2022-12-01T05:17:13.455Z,7.91
2022-12-01T05:18:13.458Z,7.98
2022-12-01T05:19:13.442Z,7.92
2022-12-01T05:20:13.461Z,7.86
2022-12-01T05:21:13.450Z,7.92
2022-12-01T05:22:13.408Z,7.84
2022-12-01T05:23:16.816Z,7.87
2022-12-01T05:24:13.388Z,7.87
2022-12-01T05:25:13.384Z,7.88
2022-12-01T05:26:13.403Z,7.91
2022-12-01T05:27:13.361Z,7.98
2022-12-01T05:28:13.369Z,7.98
2022-12-01T05:29:13.352Z,7.91
2022-12-01T05:30:13.366Z,7.98
2022-12-01T05:31:13.368Z,7.91
2022-12-01T05:32:13.326Z,7.99
2022-12-01T05:33:13.322Z,7.92
2022-12-01T05:34:13.300Z,7.95
2022-12-01T05:35:13.316Z,7.91
2022-12-01T05:36:13.297Z,7.94
2022-12-01T05:37:13.264Z,7.87
2022-12-01T05:38:13.276Z,7.84
2022-12-01T05:39:13.259Z,7.92
2022-12-01T05:40:13.260Z,7.86
2022-12-01T05:41:13.270Z,7.95
2022-12-01T05:42:13.265Z,7.88
2022-12-01T05:43:13.250Z,7.86
2022-12-01T05:44:13.209Z,7.88
2022-12-01T05:45:13.202Z,7.91
2022-12-01T05:46:13.232Z,7.87
2022-12-01T05:47:13.206Z,7.87
2022-12-01T05:48:13.178Z,7.92
2022-12-01T05:49:13.179Z,7.88
2022-12-01T05:50:13.174Z,7.84
2022-12-01T05:51:13.138Z,7.86
2022-12-01T05:52:13.152Z,7.91
2022-12-01T05:53:13.125Z,7.87
2022-12-01T05:54:13.112Z,7.92
2022-12-01T05:55:13.135Z,7.96
2022-12-01T05:56:13.124Z,7.94
2022-12-01T05:57:13.095Z,7.99
2022-12-01T05:58:13.081Z,7.84
2022-12-01T05:59:13.105Z,7.88
2022-12-01T06:00:13.080Z,7.78
2022-12-01T06:01:13.074Z,7.83
2022-12-01T06:02:13.157Z,7.80
2022-12-01T06:03:13.038Z,7.92
2022-12-01T06:04:13.076Z,7.78
2022-12-01T06:05:13.006Z,7.81
2022-12-01T06:06:13.011Z,7.88
2022-12-01T06:07:13.029Z,7.78
2022-12-01T06:08:12.978Z,7.88
2022-12-01T06:09:13.011Z,7.92
2022-12-01T06:10:12.998Z,7.84
2022-12-01T06:11:12.979Z,7.92
2022-12-01T06:12:12.974Z,7.81
2022-12-01T06:13:12.971Z,7.80
2022-12-01T06:14:12.941Z,7.92
2022-12-01T06:15:12.922Z,7.83
2022-12-01T06:16:12.975Z,7.86
2022-12-01T06:17:12.902Z,7.78
2022-12-01T06:18:12.928Z,7.80
2022-12-01T06:19:12.889Z,7.80
2022-12-01T06:20:12.878Z,7.78
2022-12-01T06:21:12.896Z,7.81
2022-12-01T06:22:12.868Z,7.96
2022-12-01T06:23:12.843Z,7.80
2022-12-01T06:24:12.848Z,7.92
2022-12-01T06:25:12.887Z,7.92
2022-12-01T06:26:12.831Z,7.99
2022-12-01T06:27:12.812Z,7.92
2022-12-01T06:28:12.820Z,7.84
2022-12-01T06:29:12.793Z,7.81
2022-12-01T06:30:12.784Z,7.83
2022-12-01T06:31:12.813Z,7.83
2022-12-01T06:32:12.768Z,7.81
2022-12-01T06:33:12.778Z,7.83
2022-12-01T06:34:12.771Z,7.78
2022-12-01T06:35:12.749Z,7.83
2022-12-01T06:36:12.757Z,7.80
2022-12-01T06:37:12.718Z,7.83
2022-12-01T06:38:12.719Z,7.83
2022-12-01T06:39:12.705Z,7.78
2022-12-01T06:40:12.705Z,7.91
2022-12-01T06:41:12.680Z,7.84
2022-12-01T06:42:12.712Z,7.95
2022-12-01T06:43:12.676Z,7.88
2022-12-01T06:44:12.688Z,7.86
2022-12-01T06:45:12.681Z,7.84
2022-12-01T06:46:12.720Z,7.95
2022-12-01T06:47:12.668Z,7.94
2022-12-01T06:48:12.663Z,7.92
2022-12-01T06:49:12.622Z,7.80
2022-12-01T06:50:12.620Z,7.80
2022-12-01T06:51:12.587Z,7.88
2022-12-01T06:52:12.585Z,7.80
2022-12-01T06:53:12.566Z,7.92
2022-12-01T06:54:12.595Z,7.81
2022-12-01T06:55:12.550Z,7.84
2022-12-01T06:56:12.551Z,7.80
2022-12-01T06:57:12.557Z,7.83
2022-12-01T06:58:12.528Z,7.81
2022-12-01T06:59:12.556Z,7.83
2022-12-01T07:00:12.522Z,7.87
2022-12-01T07:01:12.591Z,7.81
2022-12-01T07:02:12.517Z,7.83
2022-12-01T07:03:12.506Z,7.87
2022-12-01T07:04:12.467Z,7.81
2022-12-01T07:05:12.460Z,7.87
2022-12-01T07:06:12.474Z,7.87
2022-12-01T07:07:12.451Z,7.86
2022-12-01T07:08:12.543Z,7.81
2022-12-01T07:09:12.457Z,7.76
2022-12-01T07:10:12.424Z,7.81
2022-12-01T07:11:12.440Z,7.80
2022-12-01T07:12:12.417Z,7.84
2022-12-01T07:13:12.403Z,7.83
2022-12-01T07:14:12.408Z,7.86
2022-12-01T07:15:12.366Z,7.83
2022-12-01T07:16:12.425Z,7.86
2022-12-01T07:17:12.381Z,7.86
2022-12-01T07:18:12.368Z,7.80
2022-12-01T07:19:12.362Z,7.83
2022-12-01T07:20:12.332Z,7.77
2022-12-01T07:21:12.341Z,7.80
2022-12-01T07:22:12.333Z,7.83
2022-12-01T07:23:12.323Z,7.81
2022-12-01T07:24:12.316Z,7.80
2022-12-01T07:25:12.316Z,7.73
2022-12-01T07:26:12.314Z,7.78
2022-12-01T07:27:12.263Z,7.77
2022-12-01T07:28:12.272Z,7.80
2022-12-01T07:29:12.242Z,7.74
2022-12-01T07:30:12.231Z,7.81
2022-12-01T07:31:12.343Z,7.71
2022-12-01T07:32:12.225Z,7.68
2022-12-01T07:33:12.245Z,7.69
2022-12-01T07:34:12.247Z,7.69
2022-12-01T07:35:12.453Z,7.81
2022-12-01T07:36:12.198Z,7.74
2022-12-01T07:37:12.182Z,7.80
2022-12-01T07:38:12.156Z,7.74
2022-12-01T07:39:12.166Z,7.80
2022-12-01T07:40:12.133Z,7.73
2022-12-01T07:41:12.136Z,7.73
2022-12-01T07:42:12.121Z,7.86
2022-12-01T07:43:12.113Z,7.78
2022-12-01T07:44:12.128Z,7.80
2022-12-01T07:45:12.104Z,7.83
2022-12-01T07:46:15.732Z,7.80
2022-12-01T07:47:12.078Z,7.92
2022-12-01T07:48:12.066Z,7.83
2022-12-01T07:49:12.086Z,7.81
2022-12-01T07:50:12.043Z,7.80
2022-12-01T07:51:12.064Z,7.88
2022-12-01T07:52:12.051Z,7.95
2022-12-01T07:53:12.061Z,7.87
2022-12-01T07:54:12.027Z,7.87
2022-12-01T07:55:12.008Z,7.98
2022-12-01T07:56:12.015Z,7.80
2022-12-01T07:57:12.022Z,7.80
2022-12-01T07:58:11.984Z,7.87
2022-12-01T07:59:11.964Z,7.81
2022-12-01T08:00:11.968Z,7.86
2022-12-01T08:01:12.118Z,7.86
2022-12-01T08:02:12.153Z,7.81
2022-12-01T08:03:12.029Z,7.80
2022-12-01T08:04:11.926Z,7.78
2022-12-01T08:05:11.947Z,7.74
2022-12-01T08:06:11.920Z,7.84
2022-12-01T08:07:11.905Z,7.83
2022-12-01T08:08:11.972Z,7.78
2022-12-01T08:09:11.891Z,7.80
2022-12-01T08:10:11.886Z,7.83
2022-12-01T08:11:11.864Z,7.95
2022-12-01T08:12:11.861Z,7.92
2022-12-01T08:13:17.134Z,7.84
2022-12-01T08:14:11.852Z,7.87
2022-12-01T08:15:11.836Z,7.88
2022-12-01T08:16:11.893Z,7.86
2022-12-01T08:17:11.833Z,7.88
2022-12-01T08:18:11.785Z,7.92
2022-12-01T08:19:11.788Z,7.92
2022-12-01T08:20:11.789Z,7.86
2022-12-01T08:21:11.769Z,7.83
2022-12-01T08:22:11.769Z,7.92
2022-12-01T08:23:11.770Z,7.83
2022-12-01T08:24:11.749Z,7.88
2022-12-01T08:25:11.725Z,7.87
2022-12-01T08:26:11.720Z,7.87
2022-12-01T08:27:11.719Z,7.84
2022-12-01T08:28:11.735Z,7.81
2022-12-01T08:29:15.741Z,7.96
2022-12-01T08:30:11.703Z,7.94
2022-12-01T08:31:11.711Z,7.88
2022-12-01T08:32:11.683Z,7.84
2022-12-01T08:33:11.665Z,7.83
2022-12-01T08:34:11.672Z,7.84
2022-12-01T08:35:11.649Z,7.87
2022-12-01T08:36:11.671Z,7.84
2022-12-01T08:37:11.646Z,7.86
2022-12-01T08:38:11.611Z,7.87
2022-12-01T08:39:11.618Z,7.94
2022-12-01T08:40:11.609Z,7.91
2022-12-01T08:41:11.588Z,7.86
2022-12-01T08:42:11.567Z,7.87
2022-12-01T08:43:28.286Z,7.95
2022-12-01T08:44:11.610Z,7.87
2022-12-01T08:45:11.573Z,7.94
2022-12-01T08:46:11.625Z,7.86
2022-12-01T08:47:15.725Z,7.94
2022-12-01T08:48:11.556Z,7.94
2022-12-01T08:49:11.510Z,7.98
2022-12-01T08:50:11.533Z,7.86
2022-12-01T08:51:11.509Z,7.91
2022-12-01T08:52:11.476Z,7.94
2022-12-01T08:53:11.467Z,7.95
2022-12-01T08:54:11.474Z,7.92
2022-12-01T08:55:11.480Z,7.92
2022-12-01T08:56:11.451Z,7.86
2022-12-01T08:57:11.466Z,7.86
2022-12-01T08:58:11.445Z,7.87
2022-12-01T08:59:11.442Z,7.91
2022-12-01T09:00:11.411Z,7.94
2022-12-01T09:01:11.443Z,7.88
2022-12-01T09:02:11.411Z,7.87
2022-12-01T09:03:11.443Z,7.88
2022-12-01T09:04:11.412Z,7.92
2022-12-01T09:05:11.389Z,7.87
2022-12-01T09:06:11.394Z,8.01
2022-12-01T09:07:11.396Z,7.99
2022-12-01T09:08:11.392Z,7.99
2022-12-01T09:09:11.335Z,8.05
2022-12-01T09:10:11.321Z,8.01
2022-12-01T09:11:11.324Z,8.01
2022-12-01T09:12:11.331Z,8.06
2022-12-01T09:13:11.328Z,8.04
2022-12-01T09:14:11.280Z,8.04
2022-12-01T09:15:11.273Z,8.02
2022-12-01T09:16:11.405Z,8.05
2022-12-01T09:17:11.286Z,8.02
2022-12-01T09:18:11.269Z,7.99
2022-12-01T09:19:13.226Z,8.01
2022-12-01T09:20:11.267Z,7.99
2022-12-01T09:21:11.242Z,8.04
2022-12-01T09:22:11.212Z,8.09
2022-12-01T09:23:11.237Z,8.12
2022-12-01T09:24:11.200Z,8.04
2022-12-01T09:25:11.263Z,8.01
2022-12-01T09:26:13.858Z,8.04
2022-12-01T09:27:11.167Z,8.06
2022-12-01T09:28:11.175Z,8.05
2022-12-01T09:29:11.191Z,8.10
2022-12-01T09:30:11.176Z,8.01
2022-12-01T09:31:11.221Z,8.13
2022-12-01T09:32:11.136Z,8.10
2022-12-01T09:33:11.133Z,8.12
2022-12-01T09:34:11.098Z,8.04
2022-12-01T09:35:11.089Z,8.05
2022-12-01T09:36:11.084Z,8.02
2022-12-01T09:37:11.087Z,8.12
2022-12-01T09:38:11.065Z,8.05
2022-12-01T09:39:11.092Z,8.10
2022-12-01T09:40:11.051Z,8.10
2022-12-01T09:41:11.035Z,8.05
2022-12-01T09:42:11.049Z,8.09
2022-12-01T09:43:11.038Z,8.14
2022-12-01T09:44:11.020Z,8.16
2022-12-01T09:45:11.007Z,8.09
2022-12-01T09:46:11.111Z,8.16
2022-12-01T09:47:11.078Z,8.17
2022-12-01T09:48:11.002Z,8.21
2022-12-01T09:49:10.971Z,8.19
2022-12-01T09:50:10.981Z,8.17
2022-12-01T09:51:10.957Z,8.13
2022-12-01T09:52:10.938Z,8.16
2022-12-01T09:53:10.939Z,8.20
2022-12-01T09:54:10.938Z,8.19
2022-12-01T09:55:10.946Z,8.20
2022-12-01T09:56:13.050Z,8.20
2022-12-01T09:57:10.916Z,8.16
2022-12-01T09:58:10.903Z,8.24
2022-12-01T09:59:10.924Z,8.23
2022-12-01T10:00:10.890Z,8.21
2022-12-01T10:01:10.902Z,8.23
2022-12-01T10:02:10.899Z,8.28
2022-12-01T10:03:10.844Z,8.21
2022-12-01T10:04:10.831Z,8.21
2022-12-01T10:05:10.906Z,8.23
2022-12-01T10:06:26.692Z,8.20
2022-12-01T10:07:10.810Z,8.20
2022-12-01T10:08:10.799Z,8.20
2022-12-01T10:09:10.790Z,8.26
2022-12-01T10:10:10.830Z,8.23
2022-12-01T10:11:10.781Z,8.31
2022-12-01T10:12:10.779Z,8.24
2022-12-01T10:13:10.766Z,8.20
2022-12-01T10:14:12.997Z,8.23
2022-12-01T10:15:10.777Z,8.19
2022-12-01T10:16:10.800Z,8.26
2022-12-01T10:17:10.721Z,8.17
2022-12-01T10:18:10.713Z,8.28
2022-12-01T10:19:10.746Z,8.23
2022-12-01T10:20:10.727Z,8.17
2022-12-01T10:21:10.714Z,8.21
2022-12-01T10:22:10.681Z,8.16
2022-12-01T10:23:10.696Z,8.21
2022-12-01T10:24:10.699Z,8.23
2022-12-01T10:25:10.688Z,8.19
2022-12-01T10:26:10.643Z,8.20
2022-12-01T10:27:10.708Z,8.28
2022-12-01T10:28:10.623Z,8.24
2022-12-01T10:29:10.638Z,8.24
2022-12-01T10:30:10.606Z,8.32
2022-12-01T10:31:10.681Z,8.24
2022-12-01T10:32:10.604Z,8.24
2022-12-01T10:33:10.594Z,8.28
2022-12-01T10:34:10.621Z,8.28
2022-12-01T10:35:10.586Z,8.21
2022-12-01T10:36:10.585Z,8.23
2022-12-01T10:37:10.598Z,8.19
2022-12-01T10:38:10.631Z,8.21
2022-12-01T10:39:10.549Z,8.24
2022-12-01T10:40:10.558Z,8.23
2022-12-01T10:41:10.522Z,8.21
2022-12-01T10:42:10.528Z,8.28
2022-12-01T10:43:10.520Z,8.29
2022-12-01T10:44:10.507Z,8.24
2022-12-01T10:45:10.503Z,8.28
2022-12-01T10:46:10.578Z,8.34
2022-12-01T10:47:10.457Z,8.35
2022-12-01T10:48:11.246Z,8.38
2022-12-01T10:49:10.472Z,8.31
2022-12-01T10:50:10.451Z,8.38
2022-12-01T10:51:10.465Z,8.35
2022-12-01T10:52:10.445Z,8.37
2022-12-01T10:53:10.435Z,8.41
2022-12-01T10:55:26.178Z,8.29
